sensor_id;sensor_type;location;lat;lon;timestamp;temperature;humidity
60473;DHT22;46318;52.716;6.444;2023-07-16T00:00:01;18.80;77.20
60473;DHT22;46318;52.716;6.444;2023-07-16T00:02:29;18.80;77.10
60473;DHT22;46318;52.716;6.444;2023-07-16T00:04:55;18.80;76.70
60473;DHT22;46318;52.716;6.444;2023-07-16T00:07:21;18.80;75.90
60473;DHT22;46318;52.716;6.444;2023-07-16T00:09:47;18.80;75.10
60473;DHT22;46318;52.716;6.444;2023-07-16T00:12:14;18.70;74.40
60473;DHT22;46318;52.716;6.444;2023-07-16T00:14:40;18.70;73.80
60473;DHT22;46318;52.716;6.444;2023-07-16T00:17:05;18.70;73.20
60473;DHT22;46318;52.716;6.444;2023-07-16T00:19:31;18.70;72.60
60473;DHT22;46318;52.716;6.444;2023-07-16T00:21:57;18.70;72.30
60473;DHT22;46318;52.716;6.444;2023-07-16T00:24:23;18.60;71.70
60473;DHT22;46318;52.716;6.444;2023-07-16T00:26:49;18.60;71.20
60473;DHT22;46318;52.716;6.444;2023-07-16T00:29:15;18.60;71.10
60473;DHT22;46318;52.716;6.444;2023-07-16T00:31:41;18.60;71.10
60473;DHT22;46318;52.716;6.444;2023-07-16T00:34:07;18.50;71.10
60473;DHT22;46318;52.716;6.444;2023-07-16T00:36:33;18.50;71.10
60473;DHT22;46318;52.716;6.444;2023-07-16T00:38:59;18.40;71.00
60473;DHT22;46318;52.716;6.444;2023-07-16T00:41:25;18.40;70.90
60473;DHT22;46318;52.716;6.444;2023-07-16T00:43:52;18.30;71.00
60473;DHT22;46318;52.716;6.444;2023-07-16T00:46:19;18.30;71.10
60473;DHT22;46318;52.716;6.444;2023-07-16T00:48:46;18.30;71.40
60473;DHT22;46318;52.716;6.444;2023-07-16T00:51:12;18.30;71.70
60473;DHT22;46318;52.716;6.444;2023-07-16T00:53:41;18.20;72.10
60473;DHT22;46318;52.716;6.444;2023-07-16T00:56:08;18.20;72.40
60473;DHT22;46318;52.716;6.444;2023-07-16T00:58:35;18.20;72.70
60473;DHT22;46318;52.716;6.444;2023-07-16T01:01:02;18.20;73.00
60473;DHT22;46318;52.716;6.444;2023-07-16T01:03:28;18.20;73.40
60473;DHT22;46318;52.716;6.444;2023-07-16T01:06:02;18.20;73.80
60473;DHT22;46318;52.716;6.444;2023-07-16T01:08:41;18.20;74.50
60473;DHT22;46318;52.716;6.444;2023-07-16T01:11:09;18.10;75.00
60473;DHT22;46318;52.716;6.444;2023-07-16T01:13:35;18.10;75.40
60473;DHT22;46318;52.716;6.444;2023-07-16T01:16:02;18.10;75.60
60473;DHT22;46318;52.716;6.444;2023-07-16T01:18:28;18.00;75.70
60473;DHT22;46318;52.716;6.444;2023-07-16T01:20:54;18.00;75.90
60473;DHT22;46318;52.716;6.444;2023-07-16T01:29:39;18.00;76.10
60473;DHT22;46318;52.716;6.444;2023-07-16T01:32:09;18.00;76.10
60473;DHT22;46318;52.716;6.444;2023-07-16T01:34:38;18.00;76.00
60473;DHT22;46318;52.716;6.444;2023-07-16T01:37:08;18.00;75.90
60473;DHT22;46318;52.716;6.444;2023-07-16T01:39:35;18.00;75.50
60473;DHT22;46318;52.716;6.444;2023-07-16T01:42:04;18.00;75.10
60473;DHT22;46318;52.716;6.444;2023-07-16T01:44:30;18.00;74.70
60473;DHT22;46318;52.716;6.444;2023-07-16T01:49:32;18.00;73.10
60473;DHT22;46318;52.716;6.444;2023-07-16T01:52:04;18.00;72.30
60473;DHT22;46318;52.716;6.444;2023-07-16T01:54:31;18.00;71.80
60473;DHT22;46318;52.716;6.444;2023-07-16T01:56:58;18.00;71.20
60473;DHT22;46318;52.716;6.444;2023-07-16T01:59:24;18.00;70.90
60473;DHT22;46318;52.716;6.444;2023-07-16T02:01:50;18.00;70.20
60473;DHT22;46318;52.716;6.444;2023-07-16T02:04:16;18.00;70.10
60473;DHT22;46318;52.716;6.444;2023-07-16T02:06:45;18.00;69.80
60473;DHT22;46318;52.716;6.444;2023-07-16T02:09:11;18.00;69.60
60473;DHT22;46318;52.716;6.444;2023-07-16T02:11:37;18.00;69.30
60473;DHT22;46318;52.716;6.444;2023-07-16T02:14:03;18.00;69.00
60473;DHT22;46318;52.716;6.444;2023-07-16T02:16:28;17.90;68.80
60473;DHT22;46318;52.716;6.444;2023-07-16T02:18:54;17.90;68.70
60473;DHT22;46318;52.716;6.444;2023-07-16T02:21:20;17.90;68.50
60473;DHT22;46318;52.716;6.444;2023-07-16T02:23:46;17.90;68.50
60473;DHT22;46318;52.716;6.444;2023-07-16T02:26:14;17.90;68.50
60473;DHT22;46318;52.716;6.444;2023-07-16T02:28:40;17.90;68.50
60473;DHT22;46318;52.716;6.444;2023-07-16T02:31:06;17.80;68.60
60473;DHT22;46318;52.716;6.444;2023-07-16T02:33:32;17.80;68.60
60473;DHT22;46318;52.716;6.444;2023-07-16T02:35:58;17.80;68.50
60473;DHT22;46318;52.716;6.444;2023-07-16T02:38:24;17.80;68.70
60473;DHT22;46318;52.716;6.444;2023-07-16T02:40:50;17.70;68.80
60473;DHT22;46318;52.716;6.444;2023-07-16T02:43:16;17.70;68.90
60473;DHT22;46318;52.716;6.444;2023-07-16T02:45:42;17.70;69.00
60473;DHT22;46318;52.716;6.444;2023-07-16T02:48:08;17.70;69.00
60473;DHT22;46318;52.716;6.444;2023-07-16T02:50:35;17.70;69.00
60473;DHT22;46318;52.716;6.444;2023-07-16T02:53:02;17.70;69.10
60473;DHT22;46318;52.716;6.444;2023-07-16T02:55:32;17.70;69.10
60473;DHT22;46318;52.716;6.444;2023-07-16T02:57:58;17.60;69.20
60473;DHT22;46318;52.716;6.444;2023-07-16T03:00:28;17.70;69.20
60473;DHT22;46318;52.716;6.444;2023-07-16T03:02:54;17.60;69.20
60473;DHT22;46318;52.716;6.444;2023-07-16T03:05:20;17.60;69.40
60473;DHT22;46318;52.716;6.444;2023-07-16T03:07:46;17.60;69.30
60473;DHT22;46318;52.716;6.444;2023-07-16T03:10:12;17.60;69.30
60473;DHT22;46318;52.716;6.444;2023-07-16T03:12:38;17.50;69.40
60473;DHT22;46318;52.716;6.444;2023-07-16T03:15:04;17.50;69.50
60473;DHT22;46318;52.716;6.444;2023-07-16T03:17:30;17.50;69.50
60473;DHT22;46318;52.716;6.444;2023-07-16T03:19:56;17.50;69.60
60473;DHT22;46318;52.716;6.444;2023-07-16T03:22:22;17.50;69.70
60473;DHT22;46318;52.716;6.444;2023-07-16T03:24:48;17.40;69.70
60473;DHT22;46318;52.716;6.444;2023-07-16T03:27:14;17.40;69.70
60473;DHT22;46318;52.716;6.444;2023-07-16T03:29:43;17.40;69.80
60473;DHT22;46318;52.716;6.444;2023-07-16T03:32:09;17.40;70.00
60473;DHT22;46318;52.716;6.444;2023-07-16T03:34:37;17.40;70.10
60473;DHT22;46318;52.716;6.444;2023-07-16T03:37:04;17.40;70.20
60473;DHT22;46318;52.716;6.444;2023-07-16T03:39:29;17.40;70.30
60473;DHT22;46318;52.716;6.444;2023-07-16T03:41:57;17.40;70.40
60473;DHT22;46318;52.716;6.444;2023-07-16T03:44:29;17.30;70.60
60473;DHT22;46318;52.716;6.444;2023-07-16T03:46:55;17.30;70.50
60473;DHT22;46318;52.716;6.444;2023-07-16T03:49:21;17.30;70.80
60473;DHT22;46318;52.716;6.444;2023-07-16T03:51:47;17.30;70.90
60473;DHT22;46318;52.716;6.444;2023-07-16T03:54:13;17.30;71.00
60473;DHT22;46318;52.716;6.444;2023-07-16T03:56:39;17.30;71.10
60473;DHT22;46318;52.716;6.444;2023-07-16T03:59:05;17.30;71.30
60473;DHT22;46318;52.716;6.444;2023-07-16T04:01:31;17.30;71.40
60473;DHT22;46318;52.716;6.444;2023-07-16T04:03:57;17.20;71.50
60473;DHT22;46318;52.716;6.444;2023-07-16T04:06:23;17.20;71.60
60473;DHT22;46318;52.716;6.444;2023-07-16T04:08:48;17.20;71.70
60473;DHT22;46318;52.716;6.444;2023-07-16T04:11:14;17.20;71.90
60473;DHT22;46318;52.716;6.444;2023-07-16T04:13:43;17.20;72.00
60473;DHT22;46318;52.716;6.444;2023-07-16T04:16:09;17.20;72.20
60473;DHT22;46318;52.716;6.444;2023-07-16T04:18:35;17.20;72.20
60473;DHT22;46318;52.716;6.444;2023-07-16T04:21:04;17.20;72.40
60473;DHT22;46318;52.716;6.444;2023-07-16T04:23:30;17.20;72.50
60473;DHT22;46318;52.716;6.444;2023-07-16T04:25:56;17.20;72.60
60473;DHT22;46318;52.716;6.444;2023-07-16T04:28:22;17.10;72.80
60473;DHT22;46318;52.716;6.444;2023-07-16T04:30:48;17.10;72.80
60473;DHT22;46318;52.716;6.444;2023-07-16T04:33:17;17.10;72.90
60473;DHT22;46318;52.716;6.444;2023-07-16T04:35:44;17.10;72.90
60473;DHT22;46318;52.716;6.444;2023-07-16T04:38:10;17.10;72.90
60473;DHT22;46318;52.716;6.444;2023-07-16T04:40:36;17.10;73.00
60473;DHT22;46318;52.716;6.444;2023-07-16T04:43:02;17.10;73.10
60473;DHT22;46318;52.716;6.444;2023-07-16T04:45:28;17.10;72.90
60473;DHT22;46318;52.716;6.444;2023-07-16T04:47:54;17.10;72.90
60473;DHT22;46318;52.716;6.444;2023-07-16T04:50:20;17.10;73.00
60473;DHT22;46318;52.716;6.444;2023-07-16T04:52:46;17.10;73.10
60473;DHT22;46318;52.716;6.444;2023-07-16T04:55:12;17.10;73.00
60473;DHT22;46318;52.716;6.444;2023-07-16T04:57:39;17.10;73.10
60473;DHT22;46318;52.716;6.444;2023-07-16T05:00:06;17.10;73.20
60473;DHT22;46318;52.716;6.444;2023-07-16T05:02:33;17.10;73.30
60473;DHT22;46318;52.716;6.444;2023-07-16T05:04:59;17.20;73.50
60473;DHT22;46318;52.716;6.444;2023-07-16T05:07:25;17.20;73.50
60473;DHT22;46318;52.716;6.444;2023-07-16T05:09:51;17.20;73.60
60473;DHT22;46318;52.716;6.444;2023-07-16T05:12:17;17.20;73.60
60473;DHT22;46318;52.716;6.444;2023-07-16T05:14:50;17.20;73.70
60473;DHT22;46318;52.716;6.444;2023-07-16T05:17:17;17.20;73.90
60473;DHT22;46318;52.716;6.444;2023-07-16T05:19:43;17.20;73.90
60473;DHT22;46318;52.716;6.444;2023-07-16T05:22:09;17.30;73.60
60473;DHT22;46318;52.716;6.444;2023-07-16T05:24:35;17.30;73.50
60473;DHT22;46318;52.716;6.444;2023-07-16T05:27:01;17.30;73.40
60473;DHT22;46318;52.716;6.444;2023-07-16T05:29:27;17.30;73.30
60473;DHT22;46318;52.716;6.444;2023-07-16T05:31:53;17.40;73.30
60473;DHT22;46318;52.716;6.444;2023-07-16T05:34:19;17.40;73.20
60473;DHT22;46318;52.716;6.444;2023-07-16T05:36:45;17.40;73.10
60473;DHT22;46318;52.716;6.444;2023-07-16T05:39:11;17.50;73.00
60473;DHT22;46318;52.716;6.444;2023-07-16T05:41:40;17.50;72.80
60473;DHT22;46318;52.716;6.444;2023-07-16T05:44:06;17.50;72.70
60473;DHT22;46318;52.716;6.444;2023-07-16T05:46:34;17.60;72.50
60473;DHT22;46318;52.716;6.444;2023-07-16T05:48:59;17.60;72.50
60473;DHT22;46318;52.716;6.444;2023-07-16T05:51:26;17.70;72.40
60473;DHT22;46318;52.716;6.444;2023-07-16T05:53:52;17.70;72.30
60473;DHT22;46318;52.716;6.444;2023-07-16T05:56:18;17.70;72.30
60473;DHT22;46318;52.716;6.444;2023-07-16T05:58:44;17.80;71.90
60473;DHT22;46318;52.716;6.444;2023-07-16T06:01:10;17.80;71.90
60473;DHT22;46318;52.716;6.444;2023-07-16T06:03:39;17.90;71.50
60473;DHT22;46318;52.716;6.444;2023-07-16T06:06:04;18.00;71.20
60473;DHT22;46318;52.716;6.444;2023-07-16T06:08:30;18.00;70.90
60473;DHT22;46318;52.716;6.444;2023-07-16T06:10:56;18.00;70.70
60473;DHT22;46318;52.716;6.444;2023-07-16T06:13:22;18.10;70.60
60473;DHT22;46318;52.716;6.444;2023-07-16T06:15:48;18.20;70.10
60473;DHT22;46318;52.716;6.444;2023-07-16T06:18:14;18.20;69.70
60473;DHT22;46318;52.716;6.444;2023-07-16T06:20:46;18.30;69.60
60473;DHT22;46318;52.716;6.444;2023-07-16T06:23:13;18.30;69.50
60473;DHT22;46318;52.716;6.444;2023-07-16T06:25:39;18.40;69.30
60473;DHT22;46318;52.716;6.444;2023-07-16T06:28:12;18.50;69.30
60473;DHT22;46318;52.716;6.444;2023-07-16T06:30:38;18.50;69.30
60473;DHT22;46318;52.716;6.444;2023-07-16T06:33:04;18.60;68.60
60473;DHT22;46318;52.716;6.444;2023-07-16T06:35:30;18.60;68.30
60473;DHT22;46318;52.716;6.444;2023-07-16T06:37:59;18.70;68.30
60473;DHT22;46318;52.716;6.444;2023-07-16T06:40:25;18.70;68.50
60473;DHT22;46318;52.716;6.444;2023-07-16T06:42:51;18.80;68.20
60473;DHT22;46318;52.716;6.444;2023-07-16T06:45:17;18.80;67.90
60473;DHT22;46318;52.716;6.444;2023-07-16T06:47:43;18.90;67.60
60473;DHT22;46318;52.716;6.444;2023-07-16T06:50:10;19.00;67.50
60473;DHT22;46318;52.716;6.444;2023-07-16T06:52:36;19.00;67.30
60473;DHT22;46318;52.716;6.444;2023-07-16T06:55:02;19.10;67.20
60473;DHT22;46318;52.716;6.444;2023-07-16T06:57:28;19.10;67.10
60473;DHT22;46318;52.716;6.444;2023-07-16T06:59:54;19.20;66.60
60473;DHT22;46318;52.716;6.444;2023-07-16T07:02:20;19.20;66.40
60473;DHT22;46318;52.716;6.444;2023-07-16T07:04:46;19.30;65.70
60473;DHT22;46318;52.716;6.444;2023-07-16T07:07:12;19.30;65.60
60473;DHT22;46318;52.716;6.444;2023-07-16T07:09:38;19.40;65.50
60473;DHT22;46318;52.716;6.444;2023-07-16T07:12:04;19.40;65.30
60473;DHT22;46318;52.716;6.444;2023-07-16T07:14:32;19.40;65.10
60473;DHT22;46318;52.716;6.444;2023-07-16T07:16:58;19.50;65.30
60473;DHT22;46318;52.716;6.444;2023-07-16T07:19:24;19.60;65.30
60473;DHT22;46318;52.716;6.444;2023-07-16T07:21:50;19.60;64.90
60473;DHT22;46318;52.716;6.444;2023-07-16T07:24:16;19.70;65.00
60473;DHT22;46318;52.716;6.444;2023-07-16T07:26:42;19.70;64.40
60473;DHT22;46318;52.716;6.444;2023-07-16T07:29:08;19.80;64.40
60473;DHT22;46318;52.716;6.444;2023-07-16T07:31:34;19.90;64.40
60473;DHT22;46318;52.716;6.444;2023-07-16T07:34:00;20.00;64.30
60473;DHT22;46318;52.716;6.444;2023-07-16T07:36:26;20.00;63.20
60473;DHT22;46318;52.716;6.444;2023-07-16T07:38:52;20.00;63.20
60473;DHT22;46318;52.716;6.444;2023-07-16T07:41:18;20.10;63.10
60473;DHT22;46318;52.716;6.444;2023-07-16T07:43:44;20.10;63.40
60473;DHT22;46318;52.716;6.444;2023-07-16T07:46:10;20.20;63.20
60473;DHT22;46318;52.716;6.444;2023-07-16T07:48:36;20.20;62.70
60473;DHT22;46318;52.716;6.444;2023-07-16T07:51:02;20.30;62.50
60473;DHT22;46318;52.716;6.444;2023-07-16T07:53:28;20.30;62.30
60473;DHT22;46318;52.716;6.444;2023-07-16T07:55:54;20.40;61.90
60473;DHT22;46318;52.716;6.444;2023-07-16T07:58:20;20.50;61.80
60473;DHT22;46318;52.716;6.444;2023-07-16T08:00:46;20.50;61.70
60473;DHT22;46318;52.716;6.444;2023-07-16T08:03:12;20.60;61.30
60473;DHT22;46318;52.716;6.444;2023-07-16T08:05:38;20.70;61.00
60473;DHT22;46318;52.716;6.444;2023-07-16T08:08:04;20.80;60.60
60473;DHT22;46318;52.716;6.444;2023-07-16T08:10:30;20.80;60.30
60473;DHT22;46318;52.716;6.444;2023-07-16T08:12:56;20.90;60.40
60473;DHT22;46318;52.716;6.444;2023-07-16T08:15:22;20.90;60.30
60473;DHT22;46318;52.716;6.444;2023-07-16T08:17:48;20.90;60.30
60473;DHT22;46318;52.716;6.444;2023-07-16T08:20:14;20.90;60.50
60473;DHT22;46318;52.716;6.444;2023-07-16T08:22:41;20.90;60.50
60473;DHT22;46318;52.716;6.444;2023-07-16T08:25:07;20.80;60.50
60473;DHT22;46318;52.716;6.444;2023-07-16T08:27:34;20.80;60.70
60473;DHT22;46318;52.716;6.444;2023-07-16T08:30:00;20.70;60.80
60473;DHT22;46318;52.716;6.444;2023-07-16T08:32:26;20.70;60.80
60473;DHT22;46318;52.716;6.444;2023-07-16T08:34:52;20.70;61.20
60473;DHT22;46318;52.716;6.444;2023-07-16T08:37:18;20.60;61.30
60473;DHT22;46318;52.716;6.444;2023-07-16T08:39:44;20.60;61.20
60473;DHT22;46318;52.716;6.444;2023-07-16T08:42:10;20.60;61.10
60473;DHT22;46318;52.716;6.444;2023-07-16T08:44:37;20.60;61.10
60473;DHT22;46318;52.716;6.444;2023-07-16T08:47:05;20.50;61.50
60473;DHT22;46318;52.716;6.444;2023-07-16T08:49:34;20.50;61.20
60473;DHT22;46318;52.716;6.444;2023-07-16T08:52:01;20.50;61.40
60473;DHT22;46318;52.716;6.444;2023-07-16T08:54:28;20.50;61.40
60473;DHT22;46318;52.716;6.444;2023-07-16T08:56:56;20.50;61.50
60473;DHT22;46318;52.716;6.444;2023-07-16T08:59:22;20.50;61.70
60473;DHT22;46318;52.716;6.444;2023-07-16T09:01:50;20.50;61.80
60473;DHT22;46318;52.716;6.444;2023-07-16T09:04:16;20.50;61.70
60473;DHT22;46318;52.716;6.444;2023-07-16T09:06:42;20.40;61.70
60473;DHT22;46318;52.716;6.444;2023-07-16T09:09:08;20.50;61.70
60473;DHT22;46318;52.716;6.444;2023-07-16T09:11:48;20.50;61.70
60473;DHT22;46318;52.716;6.444;2023-07-16T09:14:18;20.60;61.70
60473;DHT22;46318;52.716;6.444;2023-07-16T09:16:52;20.70;61.60
60473;DHT22;46318;52.716;6.444;2023-07-16T09:19:18;20.70;61.50
60473;DHT22;46318;52.716;6.444;2023-07-16T09:21:51;20.60;61.40
60473;DHT22;46318;52.716;6.444;2023-07-16T09:24:18;20.60;61.20
60473;DHT22;46318;52.716;6.444;2023-07-16T09:26:49;20.60;61.40
60473;DHT22;46318;52.716;6.444;2023-07-16T09:29:19;20.50;61.80
60473;DHT22;46318;52.716;6.444;2023-07-16T09:31:56;20.50;61.90
60473;DHT22;46318;52.716;6.444;2023-07-16T09:34:28;20.50;62.10
60473;DHT22;46318;52.716;6.444;2023-07-16T09:36:58;20.50;62.10
60473;DHT22;46318;52.716;6.444;2023-07-16T09:39:26;20.50;62.30
60473;DHT22;46318;52.716;6.444;2023-07-16T09:41:53;20.50;62.00
60473;DHT22;46318;52.716;6.444;2023-07-16T09:44:19;20.50;61.90
60473;DHT22;46318;52.716;6.444;2023-07-16T09:46:46;20.50;62.10
60473;DHT22;46318;52.716;6.444;2023-07-16T09:49:15;20.60;62.20
60473;DHT22;46318;52.716;6.444;2023-07-16T09:51:45;20.70;62.30
60473;DHT22;46318;52.716;6.444;2023-07-16T09:54:14;20.80;62.00
60473;DHT22;46318;52.716;6.444;2023-07-16T09:56:48;20.90;61.40
60473;DHT22;46318;52.716;6.444;2023-07-16T09:59:20;20.90;61.30
60473;DHT22;46318;52.716;6.444;2023-07-16T10:01:47;20.90;61.20
60473;DHT22;46318;52.716;6.444;2023-07-16T10:04:18;20.90;61.40
60473;DHT22;46318;52.716;6.444;2023-07-16T10:07:00;21.00;61.40
60473;DHT22;46318;52.716;6.444;2023-07-16T10:14:44;20.90;61.30
60473;DHT22;46318;52.716;6.444;2023-07-16T10:19:55;20.80;61.50
60473;DHT22;46318;52.716;6.444;2023-07-16T10:22:33;20.80;61.50
60473;DHT22;46318;52.716;6.444;2023-07-16T10:25:08;20.70;61.50
60473;DHT22;46318;52.716;6.444;2023-07-16T10:27:34;20.60;61.90
60473;DHT22;46318;52.716;6.444;2023-07-16T10:30:03;20.60;62.10
60473;DHT22;46318;52.716;6.444;2023-07-16T10:32:31;20.50;62.40
60473;DHT22;46318;52.716;6.444;2023-07-16T10:34:58;20.50;62.60
60473;DHT22;46318;52.716;6.444;2023-07-16T10:37:25;20.50;62.70
60473;DHT22;46318;52.716;6.444;2023-07-16T10:39:53;20.50;62.90
60473;DHT22;46318;52.716;6.444;2023-07-16T10:42:22;20.50;63.10
60473;DHT22;46318;52.716;6.444;2023-07-16T10:44:53;20.60;63.20
60473;DHT22;46318;52.716;6.444;2023-07-16T10:47:25;20.60;63.10
60473;DHT22;46318;52.716;6.444;2023-07-16T10:49:54;20.60;63.00
60473;DHT22;46318;52.716;6.444;2023-07-16T10:52:24;20.60;63.10
60473;DHT22;46318;52.716;6.444;2023-07-16T10:54:51;20.70;63.10
60473;DHT22;46318;52.716;6.444;2023-07-16T10:57:21;20.80;63.00
60473;DHT22;46318;52.716;6.444;2023-07-16T10:59:48;20.90;62.70
60473;DHT22;46318;52.716;6.444;2023-07-16T11:02:16;20.90;62.70
60473;DHT22;46318;52.716;6.444;2023-07-16T11:04:43;21.00;62.50
60473;DHT22;46318;52.716;6.444;2023-07-16T11:07:14;21.00;62.00
60473;DHT22;46318;52.716;6.444;2023-07-16T11:09:59;20.90;61.70
60473;DHT22;46318;52.716;6.444;2023-07-16T11:12:28;21.00;61.50
60473;DHT22;46318;52.716;6.444;2023-07-16T11:14:55;21.10;61.60
60473;DHT22;46318;52.716;6.444;2023-07-16T11:17:24;21.20;61.40
60473;DHT22;46318;52.716;6.444;2023-07-16T11:19:51;21.40;61.10
60473;DHT22;46318;52.716;6.444;2023-07-16T11:22:18;21.50;60.90
60473;DHT22;46318;52.716;6.444;2023-07-16T11:24:46;21.60;60.80
60473;DHT22;46318;52.716;6.444;2023-07-16T11:27:27;21.70;60.50
60473;DHT22;46318;52.716;6.444;2023-07-16T11:29:55;21.70;60.70
60473;DHT22;46318;52.716;6.444;2023-07-16T11:35:03;21.60;59.50
60473;DHT22;46318;52.716;6.444;2023-07-16T11:37:32;21.50;59.80
60473;DHT22;46318;52.716;6.444;2023-07-16T11:40:01;21.50;59.90
60473;DHT22;46318;52.716;6.444;2023-07-16T11:42:36;21.50;60.20
60473;DHT22;46318;52.716;6.444;2023-07-16T11:45:04;21.40;60.30
60473;DHT22;46318;52.716;6.444;2023-07-16T11:47:31;21.40;60.20
60473;DHT22;46318;52.716;6.444;2023-07-16T11:49:57;21.50;60.40
60473;DHT22;46318;52.716;6.444;2023-07-16T11:52:27;21.60;60.50
60473;DHT22;46318;52.716;6.444;2023-07-16T11:54:56;21.60;60.40
60473;DHT22;46318;52.716;6.444;2023-07-16T11:57:25;21.60;60.00
60473;DHT22;46318;52.716;6.444;2023-07-16T11:59:51;21.60;60.00
60473;DHT22;46318;52.716;6.444;2023-07-16T12:02:17;21.60;60.20
60473;DHT22;46318;52.716;6.444;2023-07-16T12:04:45;21.70;60.30
60473;DHT22;46318;52.716;6.444;2023-07-16T12:07:11;21.70;60.30
60473;DHT22;46318;52.716;6.444;2023-07-16T12:09:40;21.80;60.00
60473;DHT22;46318;52.716;6.444;2023-07-16T12:12:06;21.70;59.70
60473;DHT22;46318;52.716;6.444;2023-07-16T12:14:32;21.80;59.70
60473;DHT22;46318;52.716;6.444;2023-07-16T12:16:58;21.70;59.40
60473;DHT22;46318;52.716;6.444;2023-07-16T12:19:25;21.60;59.40
60473;DHT22;46318;52.716;6.444;2023-07-16T12:21:51;21.60;59.50
60473;DHT22;46318;52.716;6.444;2023-07-16T12:24:17;21.60;59.90
60473;DHT22;46318;52.716;6.444;2023-07-16T12:26:43;21.50;59.80
60473;DHT22;46318;52.716;6.444;2023-07-16T12:29:09;21.60;59.80
60473;DHT22;46318;52.716;6.444;2023-07-16T12:31:35;21.70;60.10
60473;DHT22;46318;52.716;6.444;2023-07-16T12:34:01;21.90;60.00
60473;DHT22;46318;52.716;6.444;2023-07-16T12:36:28;22.00;60.20
60473;DHT22;46318;52.716;6.444;2023-07-16T12:38:54;22.10;59.70
60473;DHT22;46318;52.716;6.444;2023-07-16T12:41:20;22.20;59.00
60473;DHT22;46318;52.716;6.444;2023-07-16T12:43:57;22.30;58.50
60473;DHT22;46318;52.716;6.444;2023-07-16T12:46:23;22.40;58.80
60473;DHT22;46318;52.716;6.444;2023-07-16T12:48:49;22.40;58.50
60473;DHT22;46318;52.716;6.444;2023-07-16T12:51:15;22.50;58.20
60473;DHT22;46318;52.716;6.444;2023-07-16T12:53:41;22.60;57.90
60473;DHT22;46318;52.716;6.444;2023-07-16T12:56:09;22.70;57.60
60473;DHT22;46318;52.716;6.444;2023-07-16T12:58:35;22.70;57.80
60473;DHT22;46318;52.716;6.444;2023-07-16T13:01:01;22.80;57.90
60473;DHT22;46318;52.716;6.444;2023-07-16T13:03:27;22.90;57.80
60473;DHT22;46318;52.716;6.444;2023-07-16T13:05:57;22.90;57.60
60473;DHT22;46318;52.716;6.444;2023-07-16T13:08:24;22.80;57.40
60473;DHT22;46318;52.716;6.444;2023-07-16T13:10:50;22.80;57.70
60473;DHT22;46318;52.716;6.444;2023-07-16T13:13:16;22.80;57.40
60473;DHT22;46318;52.716;6.444;2023-07-16T13:15:42;22.80;57.40
60473;DHT22;46318;52.716;6.444;2023-07-16T13:18:12;22.90;57.70
60473;DHT22;46318;52.716;6.444;2023-07-16T13:20:38;23.00;57.70
60473;DHT22;46318;52.716;6.444;2023-07-16T13:23:04;23.20;57.20
60473;DHT22;46318;52.716;6.444;2023-07-16T13:25:31;23.20;56.90
60473;DHT22;46318;52.716;6.444;2023-07-16T13:27:57;23.20;57.00
60473;DHT22;46318;52.716;6.444;2023-07-16T13:30:23;23.30;57.20
60473;DHT22;46318;52.716;6.444;2023-07-16T13:32:49;23.40;56.70
60473;DHT22;46318;52.716;6.444;2023-07-16T13:35:15;23.50;56.30
60473;DHT22;46318;52.716;6.444;2023-07-16T13:37:43;23.60;56.30
60473;DHT22;46318;52.716;6.444;2023-07-16T13:40:10;23.70;55.70
60473;DHT22;46318;52.716;6.444;2023-07-16T13:42:36;23.80;55.00
60473;DHT22;46318;52.716;6.444;2023-07-16T13:45:05;23.80;55.00
60473;DHT22;46318;52.716;6.444;2023-07-16T13:47:34;23.80;54.90
60473;DHT22;46318;52.716;6.444;2023-07-16T13:50:00;23.90;54.80
60473;DHT22;46318;52.716;6.444;2023-07-16T13:52:27;23.90;54.70
60473;DHT22;46318;52.716;6.444;2023-07-16T13:54:53;24.00;54.90
60473;DHT22;46318;52.716;6.444;2023-07-16T13:57:19;24.00;54.50
60473;DHT22;46318;52.716;6.444;2023-07-16T13:59:45;24.00;54.60
60473;DHT22;46318;52.716;6.444;2023-07-16T14:02:12;24.00;54.70
60473;DHT22;46318;52.716;6.444;2023-07-16T14:04:38;23.90;54.90
60473;DHT22;46318;52.716;6.444;2023-07-16T14:07:04;23.90;54.40
60473;DHT22;46318;52.716;6.444;2023-07-16T14:09:30;23.90;53.90
60473;DHT22;46318;52.716;6.444;2023-07-16T14:11:56;23.80;53.30
60473;DHT22;46318;52.716;6.444;2023-07-16T14:14:22;23.80;53.30
60473;DHT22;46318;52.716;6.444;2023-07-16T14:16:49;23.80;53.60
60473;DHT22;46318;52.716;6.444;2023-07-16T14:19:15;23.80;53.80
60473;DHT22;46318;52.716;6.444;2023-07-16T14:21:41;23.80;53.90
60473;DHT22;46318;52.716;6.444;2023-07-16T14:24:08;23.80;53.50
60473;DHT22;46318;52.716;6.444;2023-07-16T14:26:34;23.90;53.70
60473;DHT22;46318;52.716;6.444;2023-07-16T14:29:00;23.90;53.60
60473;DHT22;46318;52.716;6.444;2023-07-16T14:31:26;23.90;53.40
60473;DHT22;46318;52.716;6.444;2023-07-16T14:33:52;23.90;53.00
60473;DHT22;46318;52.716;6.444;2023-07-16T14:36:18;23.90;52.90
60473;DHT22;46318;52.716;6.444;2023-07-16T14:38:44;23.80;53.30
60473;DHT22;46318;52.716;6.444;2023-07-16T14:41:10;23.80;53.40
60473;DHT22;46318;52.716;6.444;2023-07-16T14:43:36;23.70;53.50
60473;DHT22;46318;52.716;6.444;2023-07-16T14:46:04;23.60;53.30
60473;DHT22;46318;52.716;6.444;2023-07-16T14:48:30;23.60;53.50
60473;DHT22;46318;52.716;6.444;2023-07-16T14:50:56;23.60;53.60
60473;DHT22;46318;52.716;6.444;2023-07-16T14:53:22;23.60;53.10
60473;DHT22;46318;52.716;6.444;2023-07-16T14:55:52;23.60;53.30
60473;DHT22;46318;52.716;6.444;2023-07-16T14:58:19;23.60;53.30
60473;DHT22;46318;52.716;6.444;2023-07-16T15:00:46;23.60;53.20
60473;DHT22;46318;52.716;6.444;2023-07-16T15:03:12;23.60;53.10
60473;DHT22;46318;52.716;6.444;2023-07-16T15:05:39;23.50;53.30
60473;DHT22;46318;52.716;6.444;2023-07-16T15:08:05;23.50;53.70
60473;DHT22;46318;52.716;6.444;2023-07-16T15:10:32;23.50;53.70
60473;DHT22;46318;52.716;6.444;2023-07-16T15:12:58;23.40;53.70
60473;DHT22;46318;52.716;6.444;2023-07-16T15:15:25;23.40;53.80
60473;DHT22;46318;52.716;6.444;2023-07-16T15:17:51;23.30;54.10
60473;DHT22;46318;52.716;6.444;2023-07-16T15:20:17;23.30;54.40
60473;DHT22;46318;52.716;6.444;2023-07-16T15:22:43;23.20;54.90
60473;DHT22;46318;52.716;6.444;2023-07-16T15:25:09;23.20;55.20
60473;DHT22;46318;52.716;6.444;2023-07-16T15:27:37;23.20;55.60
60473;DHT22;46318;52.716;6.444;2023-07-16T15:30:04;23.20;55.20
60473;DHT22;46318;52.716;6.444;2023-07-16T15:32:33;23.20;55.30
60473;DHT22;46318;52.716;6.444;2023-07-16T15:34:59;23.10;55.60
60473;DHT22;46318;52.716;6.444;2023-07-16T15:37:25;23.20;55.70
60473;DHT22;46318;52.716;6.444;2023-07-16T15:39:52;23.20;56.20
60473;DHT22;46318;52.716;6.444;2023-07-16T15:42:18;23.20;56.40
60473;DHT22;46318;52.716;6.444;2023-07-16T15:44:48;23.30;56.40
60473;DHT22;46318;52.716;6.444;2023-07-16T15:47:14;23.30;55.90